sensor_id;sensor_type;location;lat;lon;timestamp;P1;durP1;ratioP1;P2;durP2;ratioP2
81374;SDS011;70828;51.158;4.998;2023-07-31T00:01:14;9.73;;;2.83;;
81374;SDS011;70828;51.158;4.998;2023-07-31T00:03:40;12.70;;;3.13;;
81374;SDS011;70828;51.158;4.998;2023-07-31T00:06:07;10.05;;;4.40;;
81374;SDS011;70828;51.158;4.998;2023-07-31T00:08:33;12.60;;;2.78;;
81374;SDS011;70828;51.158;4.998;2023-07-31T00:11:00;10.23;;;2.90;;
81374;SDS011;70828;51.158;4.998;2023-07-31T00:13:28;11.07;;;3.05;;
81374;SDS011;70828;51.158;4.998;2023-07-31T00:15:55;14.23;;;3.50;;
81374;SDS011;70828;51.158;4.998;2023-07-31T00:18:21;8.95;;;3.47;;
81374;SDS011;70828;51.158;4.998;2023-07-31T00:20:48;6.40;;;2.72;;
81374;SDS011;70828;51.158;4.998;2023-07-31T00:23:14;8.80;;;2.42;;
81374;SDS011;70828;51.158;4.998;2023-07-31T00:25:41;9.10;;;3.63;;
81374;SDS011;70828;51.158;4.998;2023-07-31T00:28:08;11.00;;;3.00;;
81374;SDS011;70828;51.158;4.998;2023-07-31T00:30:36;9.95;;;3.13;;
81374;SDS011;70828;51.158;4.998;2023-07-31T00:33:02;11.65;;;3.47;;
81374;SDS011;70828;51.158;4.998;2023-07-31T00:35:29;8.30;;;2.92;;
81374;SDS011;70828;51.158;4.998;2023-07-31T00:37:56;9.77;;;3.13;;
81374;SDS011;70828;51.158;4.998;2023-07-31T00:40:24;12.60;;;2.97;;
81374;SDS011;70828;51.158;4.998;2023-07-31T00:42:51;11.30;;;3.47;;
81374;SDS011;70828;51.158;4.998;2023-07-31T00:45:18;12.65;;;3.20;;
81374;SDS011;70828;51.158;4.998;2023-07-31T00:47:45;11.40;;;3.47;;
81374;SDS011;70828;51.158;4.998;2023-07-31T00:50:12;16.40;;;3.33;;
81374;SDS011;70828;51.158;4.998;2023-07-31T00:52:39;6.13;;;2.53;;
81374;SDS011;70828;51.158;4.998;2023-07-31T00:55:06;8.30;;;2.47;;
81374;SDS011;70828;51.158;4.998;2023-07-31T00:57:33;14.55;;;4.63;;
81374;SDS011;70828;51.158;4.998;2023-07-31T01:00:01;10.57;;;3.55;;
81374;SDS011;70828;51.158;4.998;2023-07-31T01:02:28;10.32;;;3.90;;
81374;SDS011;70828;51.158;4.998;2023-07-31T01:04:56;12.73;;;3.35;;
81374;SDS011;70828;51.158;4.998;2023-07-31T01:07:25;14.32;;;4.13;;
81374;SDS011;70828;51.158;4.998;2023-07-31T01:09:56;6.85;;;2.97;;
81374;SDS011;70828;51.158;4.998;2023-07-31T01:12:26;8.88;;;3.30;;
81374;SDS011;70828;51.158;4.998;2023-07-31T01:15:01;8.10;;;2.67;;
81374;SDS011;70828;51.158;4.998;2023-07-31T01:17:29;11.50;;;3.78;;
81374;SDS011;70828;51.158;4.998;2023-07-31T01:19:59;13.02;;;3.22;;
81374;SDS011;70828;51.158;4.998;2023-07-31T01:22:30;18.52;;;3.60;;
81374;SDS011;70828;51.158;4.998;2023-07-31T01:25:07;9.30;;;3.17;;
81374;SDS011;70828;51.158;4.998;2023-07-31T01:27:42;9.90;;;3.30;;
81374;SDS011;70828;51.158;4.998;2023-07-31T01:30:14;10.80;;;3.38;;
81374;SDS011;70828;51.158;4.998;2023-07-31T01:32:42;11.98;;;3.35;;
81374;SDS011;70828;51.158;4.998;2023-07-31T01:35:09;14.93;;;4.32;;
81374;SDS011;70828;51.158;4.998;2023-07-31T01:37:36;14.55;;;3.25;;
81374;SDS011;70828;51.158;4.998;2023-07-31T01:40:03;11.38;;;3.88;;
81374;SDS011;70828;51.158;4.998;2023-07-31T01:42:33;10.18;;;3.40;;
81374;SDS011;70828;51.158;4.998;2023-07-31T01:45:01;10.45;;;3.10;;
81374;SDS011;70828;51.158;4.998;2023-07-31T01:47:27;9.30;;;3.13;;
81374;SDS011;70828;51.158;4.998;2023-07-31T01:49:54;14.85;;;4.15;;
81374;SDS011;70828;51.158;4.998;2023-07-31T01:52:20;16.40;;;3.28;;
81374;SDS011;70828;51.158;4.998;2023-07-31T01:54:47;15.45;;;4.13;;
81374;SDS011;70828;51.158;4.998;2023-07-31T01:57:14;14.20;;;4.03;;
81374;SDS011;70828;51.158;4.998;2023-07-31T01:59:40;16.30;;;3.97;;
81374;SDS011;70828;51.158;4.998;2023-07-31T02:02:08;14.02;;;3.15;;
81374;SDS011;70828;51.158;4.998;2023-07-31T02:04:35;13.30;;;3.50;;
81374;SDS011;70828;51.158;4.998;2023-07-31T02:07:03;9.43;;;2.85;;
81374;SDS011;70828;51.158;4.998;2023-07-31T02:09:30;12.30;;;3.22;;
81374;SDS011;70828;51.158;4.998;2023-07-31T02:11:57;11.45;;;3.50;;
81374;SDS011;70828;51.158;4.998;2023-07-31T02:14:23;11.52;;;3.08;;
81374;SDS011;70828;51.158;4.998;2023-07-31T02:16:50;9.18;;;3.63;;
81374;SDS011;70828;51.158;4.998;2023-07-31T02:19:18;17.13;;;4.03;;
81374;SDS011;70828;51.158;4.998;2023-07-31T02:21:45;8.93;;;2.92;;
81374;SDS011;70828;51.158;4.998;2023-07-31T02:24:11;11.82;;;3.33;;
81374;SDS011;70828;51.158;4.998;2023-07-31T02:26:38;11.73;;;3.17;;
81374;SDS011;70828;51.158;4.998;2023-07-31T02:29:05;9.65;;;3.70;;
81374;SDS011;70828;51.158;4.998;2023-07-31T02:31:31;10.40;;;2.85;;
81374;SDS011;70828;51.158;4.998;2023-07-31T02:33:58;8.63;;;3.25;;
81374;SDS011;70828;51.158;4.998;2023-07-31T02:36:26;15.10;;;3.63;;
81374;SDS011;70828;51.158;4.998;2023-07-31T02:38:53;11.45;;;3.40;;
81374;SDS011;70828;51.158;4.998;2023-07-31T02:41:20;14.88;;;4.00;;
81374;SDS011;70828;51.158;4.998;2023-07-31T02:43:47;13.15;;;3.38;;
81374;SDS011;70828;51.158;4.998;2023-07-31T02:46:13;8.35;;;3.63;;
81374;SDS011;70828;51.158;4.998;2023-07-31T02:48:40;16.45;;;2.78;;
81374;SDS011;70828;51.158;4.998;2023-07-31T02:51:06;13.07;;;3.38;;
81374;SDS011;70828;51.158;4.998;2023-07-31T02:53:34;15.82;;;4.28;;
81374;SDS011;70828;51.158;4.998;2023-07-31T02:56:01;10.93;;;3.30;;
81374;SDS011;70828;51.158;4.998;2023-07-31T02:58:27;9.48;;;3.63;;
81374;SDS011;70828;51.158;4.998;2023-07-31T03:00:54;14.00;;;3.33;;
81374;SDS011;70828;51.158;4.998;2023-07-31T03:03:20;12.88;;;3.38;;
81374;SDS011;70828;51.158;4.998;2023-07-31T03:05:47;10.27;;;3.63;;
81374;SDS011;70828;51.158;4.998;2023-07-31T03:08:14;10.23;;;3.15;;
81374;SDS011;70828;51.158;4.998;2023-07-31T03:10:42;9.77;;;3.65;;
81374;SDS011;70828;51.158;4.998;2023-07-31T03:13:08;8.77;;;3.47;;
81374;SDS011;70828;51.158;4.998;2023-07-31T03:15:35;11.25;;;3.05;;
81374;SDS011;70828;51.158;4.998;2023-07-31T03:18:02;14.68;;;4.15;;
81374;SDS011;70828;51.158;4.998;2023-07-31T03:20:29;10.52;;;3.38;;
81374;SDS011;70828;51.158;4.998;2023-07-31T03:22:55;14.63;;;3.97;;
81374;SDS011;70828;51.158;4.998;2023-07-31T03:25:22;10.00;;;3.90;;
81374;SDS011;70828;51.158;4.998;2023-07-31T03:27:50;11.68;;;4.40;;
81374;SDS011;70828;51.158;4.998;2023-07-31T03:30:17;15.00;;;4.47;;
81374;SDS011;70828;51.158;4.998;2023-07-31T03:32:43;9.63;;;3.58;;
81374;SDS011;70828;51.158;4.998;2023-07-31T03:35:10;13.50;;;3.85;;
81374;SDS011;70828;51.158;4.998;2023-07-31T03:37:36;14.15;;;4.28;;
81374;SDS011;70828;51.158;4.998;2023-07-31T03:40:03;10.25;;;3.65;;
81374;SDS011;70828;51.158;4.998;2023-07-31T03:42:31;13.23;;;4.20;;
81374;SDS011;70828;51.158;4.998;2023-07-31T03:44:59;14.30;;;3.67;;
81374;SDS011;70828;51.158;4.998;2023-07-31T03:47:26;12.02;;;3.97;;
81374;SDS011;70828;51.158;4.998;2023-07-31T03:49:52;9.60;;;3.40;;
81374;SDS011;70828;51.158;4.998;2023-07-31T03:52:19;13.70;;;4.32;;
81374;SDS011;70828;51.158;4.998;2023-07-31T03:54:45;14.10;;;3.80;;
81374;SDS011;70828;51.158;4.998;2023-07-31T03:57:12;9.25;;;3.67;;
81374;SDS011;70828;51.158;4.998;2023-07-31T03:59:39;11.07;;;3.50;;
81374;SDS011;70828;51.158;4.998;2023-07-31T04:02:07;7.70;;;4.13;;
81374;SDS011;70828;51.158;4.998;2023-07-31T04:04:34;14.75;;;4.82;;
81374;SDS011;70828;51.158;4.998;2023-07-31T04:07:00;8.60;;;3.60;;
81374;SDS011;70828;51.158;4.998;2023-07-31T04:09:27;13.90;;;4.60;;
81374;SDS011;70828;51.158;4.998;2023-07-31T04:11:54;10.93;;;3.78;;
81374;SDS011;70828;51.158;4.998;2023-07-31T04:14:20;9.65;;;4.05;;
81374;SDS011;70828;51.158;4.998;2023-07-31T04:16:47;12.30;;;5.22;;
81374;SDS011;70828;51.158;4.998;2023-07-31T04:19:15;12.27;;;4.22;;
81374;SDS011;70828;51.158;4.998;2023-07-31T04:21:42;11.57;;;4.35;;
81374;SDS011;70828;51.158;4.998;2023-07-31T04:24:09;8.63;;;4.32;;
81374;SDS011;70828;51.158;4.998;2023-07-31T04:26:35;11.02;;;4.18;;
81374;SDS011;70828;51.158;4.998;2023-07-31T04:29:02;12.73;;;4.40;;
81374;SDS011;70828;51.158;4.998;2023-07-31T04:31:29;13.20;;;5.05;;
81374;SDS011;70828;51.158;4.998;2023-07-31T04:33:55;12.27;;;4.30;;
81374;SDS011;70828;51.158;4.998;2023-07-31T04:36:23;8.85;;;4.80;;
81374;SDS011;70828;51.158;4.998;2023-07-31T04:38:50;9.40;;;4.35;;
81374;SDS011;70828;51.158;4.998;2023-07-31T04:41:17;14.43;;;5.47;;
81374;SDS011;70828;51.158;4.998;2023-07-31T04:43:43;11.10;;;4.75;;
81374;SDS011;70828;51.158;4.998;2023-07-31T04:46:10;9.77;;;4.05;;
81374;SDS011;70828;51.158;4.998;2023-07-31T04:48:37;11.60;;;4.40;;
81374;SDS011;70828;51.158;4.998;2023-07-31T04:51:03;7.53;;;4.38;;
81374;SDS011;70828;51.158;4.998;2023-07-31T04:53:31;12.23;;;4.90;;
81374;SDS011;70828;51.158;4.998;2023-07-31T04:55:58;9.77;;;5.18;;
81374;SDS011;70828;51.158;4.998;2023-07-31T04:58:25;10.48;;;5.10;;
81374;SDS011;70828;51.158;4.998;2023-07-31T05:00:51;10.60;;;5.15;;
81374;SDS011;70828;51.158;4.998;2023-07-31T05:03:18;13.15;;;5.13;;
81374;SDS011;70828;51.158;4.998;2023-07-31T05:05:45;8.80;;;4.72;;
81374;SDS011;70828;51.158;4.998;2023-07-31T05:08:11;12.63;;;4.90;;
81374;SDS011;70828;51.158;4.998;2023-07-31T05:10:39;9.82;;;4.95;;
81374;SDS011;70828;51.158;4.998;2023-07-31T05:13:06;12.32;;;4.78;;
81374;SDS011;70828;51.158;4.998;2023-07-31T05:15:33;12.75;;;4.75;;
81374;SDS011;70828;51.158;4.998;2023-07-31T05:18:00;12.20;;;4.47;;
81374;SDS011;70828;51.158;4.998;2023-07-31T05:20:26;13.05;;;4.50;;
81374;SDS011;70828;51.158;4.998;2023-07-31T05:22:53;11.75;;;4.22;;
81374;SDS011;70828;51.158;4.998;2023-07-31T05:25:20;9.15;;;3.92;;
81374;SDS011;70828;51.158;4.998;2023-07-31T05:27:48;16.67;;;4.68;;
81374;SDS011;70828;51.158;4.998;2023-07-31T05:30:15;13.23;;;5.22;;
81374;SDS011;70828;51.158;4.998;2023-07-31T05:32:41;7.80;;;4.05;;
81374;SDS011;70828;51.158;4.998;2023-07-31T05:35:08;11.65;;;4.40;;
81374;SDS011;70828;51.158;4.998;2023-07-31T05:37:35;11.20;;;4.07;;
81374;SDS011;70828;51.158;4.998;2023-07-31T05:40:02;11.52;;;4.97;;
81374;SDS011;70828;51.158;4.998;2023-07-31T05:42:29;10.57;;;4.57;;
81374;SDS011;70828;51.158;4.998;2023-07-31T05:44:57;10.95;;;4.57;;
81374;SDS011;70828;51.158;4.998;2023-07-31T05:47:23;8.43;;;4.45;;
81374;SDS011;70828;51.158;4.998;2023-07-31T05:49:50;8.93;;;4.30;;
81374;SDS011;70828;51.158;4.998;2023-07-31T05:52:17;8.45;;;4.78;;
81374;SDS011;70828;51.158;4.998;2023-07-31T05:54:44;8.52;;;4.13;;
81374;SDS011;70828;51.158;4.998;2023-07-31T05:57:11;10.95;;;5.05;;
81374;SDS011;70828;51.158;4.998;2023-07-31T05:59:38;8.25;;;3.92;;
81374;SDS011;70828;51.158;4.998;2023-07-31T06:02:06;17.17;;;5.43;;
81374;SDS011;70828;51.158;4.998;2023-07-31T06:04:33;10.18;;;4.53;;
81374;SDS011;70828;51.158;4.998;2023-07-31T06:07:00;12.00;;;4.30;;
81374;SDS011;70828;51.158;4.998;2023-07-31T06:09:26;10.30;;;4.30;;
81374;SDS011;70828;51.158;4.998;2023-07-31T06:11:53;9.23;;;4.18;;
81374;SDS011;70828;51.158;4.998;2023-07-31T06:14:20;8.77;;;3.67;;
81374;SDS011;70828;51.158;4.998;2023-07-31T06:16:46;8.82;;;4.18;;
81374;SDS011;70828;51.158;4.998;2023-07-31T06:19:14;6.53;;;3.70;;
81374;SDS011;70828;51.158;4.998;2023-07-31T06:21:41;7.57;;;3.83;;
81374;SDS011;70828;51.158;4.998;2023-07-31T06:24:09;7.75;;;3.53;;
81374;SDS011;70828;51.158;4.998;2023-07-31T06:26:37;10.45;;;3.30;;
81374;SDS011;70828;51.158;4.998;2023-07-31T06:29:04;6.13;;;3.55;;
81374;SDS011;70828;51.158;4.998;2023-07-31T06:31:30;8.23;;;3.83;;
81374;SDS011;70828;51.158;4.998;2023-07-31T06:33:57;8.25;;;3.55;;
81374;SDS011;70828;51.158;4.998;2023-07-31T06:36:25;9.82;;;3.72;;
81374;SDS011;70828;51.158;4.998;2023-07-31T06:38:52;5.88;;;3.60;;
81374;SDS011;70828;51.158;4.998;2023-07-31T06:41:18;10.88;;;4.20;;
81374;SDS011;70828;51.158;4.998;2023-07-31T06:43:45;9.10;;;3.80;;
81374;SDS011;70828;51.158;4.998;2023-07-31T06:46:12;9.52;;;4.40;;
81374;SDS011;70828;51.158;4.998;2023-07-31T06:48:38;6.50;;;3.35;;
81374;SDS011;70828;51.158;4.998;2023-07-31T06:51:05;8.48;;;4.30;;
81374;SDS011;70828;51.158;4.998;2023-07-31T06:53:33;8.50;;;4.03;;
81374;SDS011;70828;51.158;4.998;2023-07-31T06:56:00;10.35;;;4.18;;
81374;SDS011;70828;51.158;4.998;2023-07-31T06:58:26;7.22;;;3.60;;
81374;SDS011;70828;51.158;4.998;2023-07-31T07:00:53;8.32;;;3.45;;
81374;SDS011;70828;51.158;4.998;2023-07-31T07:03:20;11.02;;;3.78;;
81374;SDS011;70828;51.158;4.998;2023-07-31T07:05:46;7.40;;;4.40;;
81374;SDS011;70828;51.158;4.998;2023-07-31T07:08:13;13.68;;;3.92;;
81374;SDS011;70828;51.158;4.998;2023-07-31T07:10:41;10.82;;;4.13;;
81374;SDS011;70828;51.158;4.998;2023-07-31T07:13:08;11.65;;;3.80;;
81374;SDS011;70828;51.158;4.998;2023-07-31T07:15:34;12.00;;;4.22;;
81374;SDS011;70828;51.158;4.998;2023-07-31T07:18:02;10.40;;;5.13;;
81374;SDS011;70828;51.158;4.998;2023-07-31T07:20:29;9.57;;;3.63;;
81374;SDS011;70828;51.158;4.998;2023-07-31T07:22:55;7.95;;;3.60;;
81374;SDS011;70828;51.158;4.998;2023-07-31T07:25:23;8.63;;;4.15;;
81374;SDS011;70828;51.158;4.998;2023-07-31T07:27:51;10.65;;;4.40;;
81374;SDS011;70828;51.158;4.998;2023-07-31T07:30:18;7.82;;;3.40;;
81374;SDS011;70828;51.158;4.998;2023-07-31T07:32:45;9.90;;;4.28;;
81374;SDS011;70828;51.158;4.998;2023-07-31T07:35:11;15.27;;;3.53;;
81374;SDS011;70828;51.158;4.998;2023-07-31T07:37:38;10.48;;;3.95;;
81374;SDS011;70828;51.158;4.998;2023-07-31T07:40:05;6.10;;;3.30;;
81374;SDS011;70828;51.158;4.998;2023-07-31T07:42:33;6.82;;;4.10;;
81374;SDS011;70828;51.158;4.998;2023-07-31T07:45:01;5.70;;;3.30;;
81374;SDS011;70828;51.158;4.998;2023-07-31T07:47:28;6.97;;;3.67;;
81374;SDS011;70828;51.158;4.998;2023-07-31T07:49:54;9.18;;;3.67;;
81374;SDS011;70828;51.158;4.998;2023-07-31T07:52:21;7.88;;;2.97;;
81374;SDS011;70828;51.158;4.998;2023-07-31T07:54:48;7.90;;;3.88;;
81374;SDS011;70828;51.158;4.998;2023-07-31T07:57:15;9.45;;;3.97;;
81374;SDS011;70828;51.158;4.998;2023-07-31T07:59:41;8.70;;;3.63;;
81374;SDS011;70828;51.158;4.998;2023-07-31T08:02:09;15.10;;;3.65;;
81374;SDS011;70828;51.158;4.998;2023-07-31T08:04:36;7.88;;;3.40;;
81374;SDS011;70828;51.158;4.998;2023-07-31T08:07:03;9.23;;;3.65;;
81374;SDS011;70828;51.158;4.998;2023-07-31T08:09:30;8.57;;;3.20;;
81374;SDS011;70828;51.158;4.998;2023-07-31T08:11:57;8.13;;;3.47;;
81374;SDS011;70828;51.158;4.998;2023-07-31T08:14:27;10.88;;;3.45;;
81374;SDS011;70828;51.158;4.998;2023-07-31T08:16:54;8.13;;;3.00;;
81374;SDS011;70828;51.158;4.998;2023-07-31T08:19:22;14.57;;;4.63;;
81374;SDS011;70828;51.158;4.998;2023-07-31T08:21:48;8.45;;;3.03;;
81374;SDS011;70828;51.158;4.998;2023-07-31T08:24:15;7.63;;;2.90;;
81374;SDS011;70828;51.158;4.998;2023-07-31T08:26:42;8.13;;;3.35;;
81374;SDS011;70828;51.158;4.998;2023-07-31T08:29:09;6.28;;;3.00;;
81374;SDS011;70828;51.158;4.998;2023-07-31T08:31:35;6.45;;;3.35;;
81374;SDS011;70828;51.158;4.998;2023-07-31T08:34:02;8.30;;;3.42;;
81374;SDS011;70828;51.158;4.998;2023-07-31T08:36:30;6.28;;;2.63;;
81374;SDS011;70828;51.158;4.998;2023-07-31T08:38:57;7.28;;;3.17;;
81374;SDS011;70828;51.158;4.998;2023-07-31T08:41:24;9.05;;;2.92;;
81374;SDS011;70828;51.158;4.998;2023-07-31T08:43:50;5.85;;;2.90;;
81374;SDS011;70828;51.158;4.998;2023-07-31T08:46:18;7.05;;;3.15;;
81374;SDS011;70828;51.158;4.998;2023-07-31T08:48:45;7.07;;;2.53;;
81374;SDS011;70828;51.158;4.998;2023-07-31T08:51:13;5.97;;;2.70;;
81374;SDS011;70828;51.158;4.998;2023-07-31T08:53:41;12.25;;;2.85;;
81374;SDS011;70828;51.158;4.998;2023-07-31T08:56:08;4.63;;;2.65;;
81374;SDS011;70828;51.158;4.998;2023-07-31T08:58:35;6.05;;;2.65;;
81374;SDS011;70828;51.158;4.998;2023-07-31T09:01:04;5.57;;;2.35;;
81374;SDS011;70828;51.158;4.998;2023-07-31T09:03:32;5.45;;;2.50;;
81374;SDS011;70828;51.158;4.998;2023-07-31T09:06:00;8.05;;;2.63;;
81374;SDS011;70828;51.158;4.998;2023-07-31T09:08:29;5.07;;;2.38;;
81374;SDS011;70828;51.158;4.998;2023-07-31T09:11:00;7.68;;;2.20;;
81374;SDS011;70828;51.158;4.998;2023-07-31T09:13:28;7.07;;;2.83;;
81374;SDS011;70828;51.158;4.998;2023-07-31T09:15:55;5.35;;;1.98;;
81374;SDS011;70828;51.158;4.998;2023-07-31T09:18:22;4.00;;;1.95;;
81374;SDS011;70828;51.158;4.998;2023-07-31T09:21:00;4.05;;;1.88;;
81374;SDS011;70828;51.158;4.998;2023-07-31T09:23:27;4.20;;;1.90;;
81374;SDS011;70828;51.158;4.998;2023-07-31T09:26:08;6.75;;;1.80;;
81374;SDS011;70828;51.158;4.998;2023-07-31T09:28:34;3.92;;;1.45;;
81374;SDS011;70828;51.158;4.998;2023-07-31T09:31:01;3.75;;;1.63;;
81374;SDS011;70828;51.158;4.998;2023-07-31T09:33:28;5.03;;;2.00;;
81374;SDS011;70828;51.158;4.998;2023-07-31T09:35:56;4.65;;;1.95;;
81374;SDS011;70828;51.158;4.998;2023-07-31T09:38:25;2.83;;;1.45;;
81374;SDS011;70828;51.158;4.998;2023-07-31T09:40:51;6.72;;;1.95;;
81374;SDS011;70828;51.158;4.998;2023-07-31T09:43:19;5.40;;;1.77;;
81374;SDS011;70828;51.158;4.998;2023-07-31T09:45:47;6.25;;;2.20;;
81374;SDS011;70828;51.158;4.998;2023-07-31T09:48:14;6.55;;;2.03;;
81374;SDS011;70828;51.158;4.998;2023-07-31T09:50:42;5.55;;;2.22;;
81374;SDS011;70828;51.158;4.998;2023-07-31T09:53:09;4.63;;;1.98;;
81374;SDS011;70828;51.158;4.998;2023-07-31T09:55:37;6.85;;;3.40;;
81374;SDS011;70828;51.158;4.998;2023-07-31T09:58:04;3.70;;;1.92;;
81374;SDS011;70828;51.158;4.998;2023-07-31T10:00:34;4.28;;;1.80;;
81374;SDS011;70828;51.158;4.998;2023-07-31T10:03:02;4.15;;;2.35;;
81374;SDS011;70828;51.158;4.998;2023-07-31T10:05:36;3.83;;;2.15;;
81374;SDS011;70828;51.158;4.998;2023-07-31T10:08:04;6.25;;;2.55;;
81374;SDS011;70828;51.158;4.998;2023-07-31T10:10:32;4.38;;;2.10;;
81374;SDS011;70828;51.158;4.998;2023-07-31T10:13:02;5.07;;;2.38;;
81374;SDS011;70828;51.158;4.998;2023-07-31T10:15:30;4.78;;;2.55;;
81374;SDS011;70828;51.158;4.998;2023-07-31T10:17:58;5.60;;;2.60;;
81374;SDS011;70828;51.158;4.998;2023-07-31T10:20:25;7.28;;;2.05;;
81374;SDS011;70828;51.158;4.998;2023-07-31T10:22:53;5.35;;;2.00;;
81374;SDS011;70828;51.158;4.998;2023-07-31T10:25:21;4.82;;;2.25;;
81374;SDS011;70828;51.158;4.998;2023-07-31T10:27:48;5.32;;;2.15;;
81374;SDS011;70828;51.158;4.998;2023-07-31T10:30:15;7.03;;;2.30;;
81374;SDS011;70828;51.158;4.998;2023-07-31T10:32:43;4.10;;;1.92;;
81374;SDS011;70828;51.158;4.998;2023-07-31T10:35:12;4.78;;;1.88;;
81374;SDS011;70828;51.158;4.998;2023-07-31T10:37:39;4.40;;;1.90;;
81374;SDS011;70828;51.158;4.998;2023-07-31T10:40:09;5.50;;;2.30;;
81374;SDS011;70828;51.158;4.998;2023-07-31T10:42:38;3.95;;;1.75;;
81374;SDS011;70828;51.158;4.998;2023-07-31T10:45:12;3.17;;;1.88;;
81374;SDS011;70828;51.158;4.998;2023-07-31T10:47:42;3.67;;;1.70;;
81374;SDS011;70828;51.158;4.998;2023-07-31T10:50:15;4.30;;;2.05;;
81374;SDS011;70828;51.158;4.998;2023-07-31T10:52:45;4.25;;;1.67;;
81374;SDS011;70828;51.158;4.998;2023-07-31T10:55:14;3.22;;;1.35;;
81374;SDS011;70828;51.158;4.998;2023-07-31T10:57:44;3.65;;;1.63;;
81374;SDS011;70828;51.158;4.998;2023-07-31T11:00:20;4.28;;;1.88;;
81374;SDS011;70828;51.158;4.998;2023-07-31T11:05:45;4.22;;;1.67;;
81374;SDS011;70828;51.158;4.998;2023-07-31T11:08:13;7.30;;;1.92;;
81374;SDS011;70828;51.158;4.998;2023-07-31T11:10:40;5.07;;;2.05;;
81374;SDS011;70828;51.158;4.998;2023-07-31T11:13:07;4.88;;;2.38;;
81374;SDS011;70828;51.158;4.998;2023-07-31T11:15:33;5.70;;;2.08;;
81374;SDS011;70828;51.158;4.998;2023-07-31T11:18:00;4.45;;;2.13;;
81374;SDS011;70828;51.158;4.998;2023-07-31T11:20:29;5.15;;;2.50;;
81374;SDS011;70828;51.158;4.998;2023-07-31T11:22:59;3.65;;;2.50;;
81374;SDS011;70828;51.158;4.998;2023-07-31T11:25:28;6.03;;;2.55;;
81374;SDS011;70828;51.158;4.998;2023-07-31T11:27:55;5.65;;;2.22;;
81374;SDS011;70828;51.158;4.998;2023-07-31T11:30:22;5.10;;;2.38;;
81374;SDS011;70828;51.158;4.998;2023-07-31T11:32:49;6.85;;;2.58;;
81374;SDS011;70828;51.158;4.998;2023-07-31T11:35:16;5.75;;;2.17;;
81374;SDS011;70828;51.158;4.998;2023-07-31T11:37:43;3.92;;;2.40;;
81374;SDS011;70828;51.158;4.998;2023-07-31T11:40:12;5.50;;;2.50;;
81374;SDS011;70828;51.158;4.998;2023-07-31T11:42:39;5.43;;;2.40;;
81374;SDS011;70828;51.158;4.998;2023-07-31T11:45:06;6.88;;;2.25;;
81374;SDS011;70828;51.158;4.998;2023-07-31T11:47:34;7.10;;;2.72;;
81374;SDS011;70828;51.158;4.998;2023-07-31T11:50:02;7.95;;;3.55;;
81374;SDS011;70828;51.158;4.998;2023-07-31T11:52:29;8.07;;;3.17;;
81374;SDS011;70828;51.158;4.998;2023-07-31T11:54:56;4.65;;;2.95;;
81374;SDS011;70828;51.158;4.998;2023-07-31T11:57:25;8.57;;;3.13;;
81374;SDS011;70828;51.158;4.998;2023-07-31T11:59:52;11.20;;;3.05;;
81374;SDS011;70828;51.158;4.998;2023-07-31T12:02:19;6.45;;;2.85;;
81374;SDS011;70828;51.158;4.998;2023-07-31T12:04:46;10.38;;;3.22;;
81374;SDS011;70828;51.158;4.998;2023-07-31T12:07:13;8.48;;;2.78;;
81374;SDS011;70828;51.158;4.998;2023-07-31T12:09:50;6.78;;;2.60;;
81374;SDS011;70828;51.158;4.998;2023-07-31T12:12:19;4.93;;;2.45;;
81374;SDS011;70828;51.158;4.998;2023-07-31T12:14:48;7.97;;;2.97;;
81374;SDS011;70828;51.158;4.998;2023-07-31T12:19:43;6.93;;;3.17;;
81374;SDS011;70828;51.158;4.998;2023-07-31T12:22:13;8.18;;;2.80;;
81374;SDS011;70828;51.158;4.998;2023-07-31T12:24:41;7.30;;;3.22;;
81374;SDS011;70828;51.158;4.998;2023-07-31T12:27:10;7.70;;;3.28;;
81374;SDS011;70828;51.158;4.998;2023-07-31T12:29:37;7.93;;;2.92;;
81374;SDS011;70828;51.158;4.998;2023-07-31T12:32:06;9.80;;;2.97;;
81374;SDS011;70828;51.158;4.998;2023-07-31T12:34:45;5.72;;;3.30;;
81374;SDS011;70828;51.158;4.998;2023-07-31T12:37:12;6.25;;;2.85;;
81374;SDS011;70828;51.158;4.998;2023-07-31T12:39:38;6.22;;;2.78;;
81374;SDS011;70828;51.158;4.998;2023-07-31T12:42:05;5.60;;;3.08;;
81374;SDS011;70828;51.158;4.998;2023-07-31T12:44:32;5.35;;;2.53;;
81374;SDS011;70828;51.158;4.998;2023-07-31T12:46:59;8.90;;;2.90;;
81374;SDS011;70828;51.158;4.998;2023-07-31T12:49:27;7.55;;;3.15;;
81374;SDS011;70828;51.158;4.998;2023-07-31T12:51:54;8.88;;;3.28;;
81374;SDS011;70828;51.158;4.998;2023-07-31T12:54:20;7.88;;;3.33;;
81374;SDS011;70828;51.158;4.998;2023-07-31T12:56:47;5.30;;;2.85;;
81374;SDS011;70828;51.158;4.998;2023-07-31T12:59:14;7.85;;;3.45;;
81374;SDS011;70828;51.158;4.998;2023-07-31T13:01:40;6.88;;;3.25;;
81374;SDS011;70828;51.158;4.998;2023-07-31T13:04:07;7.47;;;3.20;;
81374;SDS011;70828;51.158;4.998;2023-07-31T13:06:36;5.20;;;2.58;;
81374;SDS011;70828;51.158;4.998;2023-07-31T13:09:02;10.45;;;2.88;;
81374;SDS011;70828;51.158;4.998;2023-07-31T13:11:29;10.35;;;3.58;;
81374;SDS011;70828;51.158;4.998;2023-07-31T13:14:00;6.65;;;3.13;;
81374;SDS011;70828;51.158;4.998;2023-07-31T13:16:37;12.70;;;3.13;;
81374;SDS011;70828;51.158;4.998;2023-07-31T13:19:05;8.35;;;2.92;;
81374;SDS011;70828;51.158;4.998;2023-07-31T13:21:32;7.65;;;3.03;;
81374;SDS011;70828;51.158;4.998;2023-07-31T13:24:03;5.90;;;3.63;;
81374;SDS011;70828;51.158;4.998;2023-07-31T13:26:30;9.60;;;3.15;;
81374;SDS011;70828;51.158;4.998;2023-07-31T13:28:57;6.45;;;3.20;;
81374;SDS011;70828;51.158;4.998;2023-07-31T13:31:23;6.40;;;2.95;;
81374;SDS011;70828;51.158;4.998;2023-07-31T13:33:50;9.38;;;3.45;;
81374;SDS011;70828;51.158;4.998;2023-07-31T13:36:17;6.07;;;2.80;;
81374;SDS011;70828;51.158;4.998;2023-07-31T13:38:43;8.50;;;2.63;;
81374;SDS011;70828;51.158;4.998;2023-07-31T13:41:12;9.73;;;3.45;;
81374;SDS011;70828;51.158;4.998;2023-07-31T13:43:38;5.22;;;1.85;;
81374;SDS011;70828;51.158;4.998;2023-07-31T13:46:06;7.40;;;2.88;;
81374;SDS011;70828;51.158;4.998;2023-07-31T13:48:34;6.63;;;2.53;;
81374;SDS011;70828;51.158;4.998;2023-07-31T13:51:01;6.55;;;2.78;;
81374;SDS011;70828;51.158;4.998;2023-07-31T13:53:27;4.32;;;2.30;;
81374;SDS011;70828;51.158;4.998;2023-07-31T13:55:54;8.30;;;2.08;;
81374;SDS011;70828;51.158;4.998;2023-07-31T13:58:22;7.55;;;2.95;;
81374;SDS011;70828;51.158;4.998;2023-07-31T14:00:49;6.28;;;3.08;;
81374;SDS011;70828;51.158;4.998;2023-07-31T14:03:16;6.65;;;2.80;;
81374;SDS011;70828;51.158;4.998;2023-07-31T14:05:43;6.85;;;2.42;;
81374;SDS011;70828;51.158;4.998;2023-07-31T14:08:09;5.05;;;2.55;;
81374;SDS011;70828;51.158;4.998;2023-07-31T14:10:36;5.82;;;2.63;;
81374;SDS011;70828;51.158;4.998;2023-07-31T14:13:03;5.65;;;3.17;;
81374;SDS011;70828;51.158;4.998;2023-07-31T14:15:31;3.70;;;1.67;;
81374;SDS011;70828;51.158;4.998;2023-07-31T14:18:00;6.38;;;2.72;;
81374;SDS011;70828;51.158;4.998;2023-07-31T14:20:27;4.68;;;2.10;;
81374;SDS011;70828;51.158;4.998;2023-07-31T14:22:54;5.97;;;2.22;;
81374;SDS011;70828;51.158;4.998;2023-07-31T14:25:21;8.57;;;2.67;;
81374;SDS011;70828;51.158;4.998;2023-07-31T14:27:48;5.70;;;2.45;;
81374;SDS011;70828;51.158;4.998;2023-07-31T14:30:14;5.05;;;2.88;;
81374;SDS011;70828;51.158;4.998;2023-07-31T14:32:43;6.15;;;2.15;;
81374;SDS011;70828;51.158;4.998;2023-07-31T14:35:10;4.43;;;1.98;;
81374;SDS011;70828;51.158;4.998;2023-07-31T14:37:37;3.00;;;2.03;;
81374;SDS011;70828;51.158;4.998;2023-07-31T14:40:05;3.40;;;1.80;;
81374;SDS011;70828;51.158;4.998;2023-07-31T14:42:32;6.57;;;2.08;;
81374;SDS011;70828;51.158;4.998;2023-07-31T14:45:02;6.00;;;3.30;;
81374;SDS011;70828;51.158;4.998;2023-07-31T14:47:28;5.95;;;2.10;;
81374;SDS011;70828;51.158;4.998;2023-07-31T14:49:57;8.23;;;2.75;;